Time;durP1;ratioP1;P1;durP2;ratioP2;P2;SDS_P1;SDS_P2;PMS_P1;PMS_P2;Temp;Humidity;BMP_temperature;BMP_pressure;BME280_temperature;BME280_humidity;BME280_pressure;Samples;Min_cycle;Max_cycle;Signal;HPM_P1;HPM_P2
2022/01/29 00:01:35;;;;;;;6.70;3.80;;;9.00;99.90;;;;;;5058314;28;20641;-81
2022/01/29 00:04:01;;;;;;;5.10;4.20;;;9.00;99.90;;;;;;5063914;28;20220;-81
2022/01/29 00:06:27;;;;;;;5.97;4.20;;;9.00;99.90;;;;;;5064625;28;20689;-82
2022/01/29 00:08:55;;;;;;;7.77;4.57;;;9.00;99.90;;;;;;5058836;28;20183;-81
2022/01/29 00:11:27;;;;;;;6.88;4.93;;;9.10;99.90;;;;;;5058507;28;20617;-81
2022/01/29 00:13:52;;;;;;;7.15;4.38;;;9.10;99.90;;;;;;5061343;28;20544;-81
2022/01/29 00:16:18;;;;;;;4.93;4.00;;;9.10;99.90;;;;;;5060371;28;20168;-81
2022/01/29 00:18:44;;;;;;;5.83;4.10;;;9.10;99.90;;;;;;5062536;28;20183;-82
2022/01/29 00:21:10;;;;;;;7.33;4.67;;;9.10;99.90;;;;;;5059490;28;20185;-82
2022/01/29 00:23:36;;;;;;;12.25;4.78;;;9.10;99.90;;;;;;5060113;28;20189;-82
2022/01/29 00:26:01;;;;;;;6.47;4.17;;;9.20;99.90;;;;;;5061260;28;20168;-82
2022/01/29 00:28:28;;;;;;;6.40;4.80;;;9.20;99.90;;;;;;5058112;28;20201;-82
2022/01/29 00:30:54;;;;;;;7.22;4.47;;;9.30;99.90;;;;;;5062039;28;20603;-82
2022/01/29 00:33:19;;;;;;;6.50;4.33;;;9.30;99.90;;;;;;5062777;28;20230;-82
2022/01/29 00:35:45;;;;;;;6.40;4.77;;;9.20;99.90;;;;;;5054167;28;20322;-82
2022/01/29 00:38:11;;;;;;;6.50;5.30;;;9.30;99.90;;;;;;5063471;28;20184;-83
2022/01/29 00:40:37;;;;;;;6.50;4.60;;;9.20;99.90;;;;;;5063554;28;20234;-82
2022/01/29 00:43:04;;;;;;;7.45;5.53;;;9.20;99.90;;;;;;5059543;28;20188;-82
2022/01/29 00:45:31;;;;;;;6.50;5.00;;;9.30;99.90;;;;;;5061865;28;20541;-82
2022/01/29 00:47:59;;;;;;;7.75;5.28;;;9.30;99.90;;;;;;5059421;28;20211;-82
2022/01/29 00:50:25;;;;;;;8.20;4.93;;;9.30;99.90;;;;;;5059430;28;20338;-81
2022/01/29 00:52:51;;;;;;;10.87;5.83;;;9.30;99.90;;;;;;5059680;28;20223;-82
2022/01/29 00:55:17;;;;;;;7.50;4.93;;;9.30;99.90;;;;;;5057808;28;20568;-82
2022/01/29 00:57:43;;;;;;;8.37;5.40;;;9.30;99.90;;;;;;5062601;28;20176;-82
2022/01/29 01:00:12;;;;;;;12.35;6.65;;;9.30;99.90;;;;;;5057035;28;20231;-81
2022/01/29 01:02:38;;;;;;;9.73;7.47;;;9.30;99.90;;;;;;5066220;28;20179;-81
2022/01/29 01:05:05;;;;;;;11.43;8.07;;;9.30;99.90;;;;;;5061873;28;20204;-82
2022/01/29 01:07:30;;;;;;;9.98;6.50;;;9.40;99.90;;;;;;5063692;28;20199;-82
2022/01/29 01:09:56;;;;;;;9.10;7.40;;;9.40;99.90;;;;;;5062492;28;20308;-81
2022/01/29 01:12:23;;;;;;;10.87;7.30;;;9.40;99.90;;;;;;5060514;28;20580;-82
2022/01/29 01:14:48;;;;;;;12.70;7.82;;;9.40;99.90;;;;;;5060985;28;20582;-81
2022/01/29 01:17:14;;;;;;;13.53;8.90;;;9.40;99.90;;;;;;5059136;28;20649;-82
2022/01/29 01:19:40;;;;;;;8.60;7.00;;;9.40;99.90;;;;;;5061352;28;20188;-82
2022/01/29 01:22:05;;;;;;;11.13;7.73;;;9.50;99.90;;;;;;5058165;28;20177;-82
2022/01/29 01:24:31;;;;;;;13.17;8.23;;;9.50;99.90;;;;;;5061796;28;20605;-82
2022/01/29 01:26:57;;;;;;;12.73;8.90;;;9.50;99.90;;;;;;5060835;28;20258;-81
2022/01/29 01:29:23;;;;;;;11.23;7.90;;;9.50;99.90;;;;;;5059106;28;20657;-82
2022/01/29 01:31:49;;;;;;;16.10;8.13;;;9.50;99.90;;;;;;5061142;28;20579;-82
2022/01/29 01:34:18;;;;;;;13.53;8.30;;;9.60;99.90;;;;;;5061278;28;21358;-82
2022/01/29 01:36:50;;;;;;;13.32;8.55;;;9.60;99.90;;;;;;5058824;28;20176;-83
2022/01/29 01:39:20;;;;;;;12.30;9.13;;;9.60;99.90;;;;;;5060667;28;20215;-82
2022/01/29 01:42:02;;;;;;;10.40;7.95;;;9.60;99.90;;;;;;5024473;28;20178;-82
2022/01/29 01:44:45;;;;;;;11.80;8.07;;;9.60;99.90;;;;;;5061705;28;20222;-82
2022/01/29 01:47:13;;;;;;;10.70;7.68;;;9.60;99.90;;;;;;5061337;28;20215;-82
2022/01/29 01:49:40;;;;;;;11.15;7.35;;;9.60;99.90;;;;;;5059084;28;20338;-83
2022/01/29 01:52:09;;;;;;;12.73;9.10;;;9.60;99.90;;;;;;5065877;28;20520;-82
2022/01/29 01:54:35;;;;;;;12.68;8.30;;;9.60;99.90;;;;;;5064563;28;20209;-82
2022/01/29 01:57:02;;;;;;;10.52;9.43;;;9.70;99.90;;;;;;5063813;28;20638;-82
2022/01/29 01:59:28;;;;;;;11.95;9.00;;;9.70;99.90;;;;;;5064386;28;20219;-82
2022/01/29 02:01:54;;;;;;;13.05;9.32;;;9.70;99.90;;;;;;5042133;28;20190;-83
2022/01/29 02:04:20;;;;;;;15.80;9.30;;;9.70;99.90;;;;;;5066696;28;20182;-83
2022/01/29 02:06:46;;;;;;;12.17;8.47;;;9.70;99.90;;;;;;5064170;28;20641;-83
2022/01/29 02:09:15;;;;;;;12.15;9.73;;;9.70;99.90;;;;;;5061974;28;20193;-83
2022/01/29 02:11:51;;;;;;;13.77;9.23;;;9.70;99.90;;;;;;5058441;28;20204;-83
2022/01/29 02:14:18;;;;;;;13.93;9.57;;;9.70;99.90;;;;;;5063987;28;20226;-83
2022/01/29 02:16:45;;;;;;;13.25;9.65;;;9.70;99.90;;;;;;5060561;28;20648;-83
2022/01/29 02:19:10;;;;;;;13.73;9.00;;;9.70;99.90;;;;;;5064217;28;20299;-83
2022/01/29 02:21:37;;;;;;;11.10;9.27;;;9.70;99.90;;;;;;5062512;28;20255;-82
2022/01/29 02:24:02;;;;;;;11.98;9.00;;;9.70;99.90;;;;;;5064473;28;20582;-82
2022/01/29 02:26:28;;;;;;;13.77;9.40;;;9.70;99.90;;;;;;5064320;28;20181;-82
2022/01/29 02:28:55;;;;;;;13.33;8.83;;;9.70;99.90;;;;;;5062990;28;20572;-83
2022/01/29 02:31:20;;;;;;;14.77;10.00;;;9.70;99.90;;;;;;5064209;28;20181;-82
2022/01/29 02:33:46;;;;;;;13.43;9.20;;;9.70;99.90;;;;;;5061836;28;20175;-82
2022/01/29 02:36:12;;;;;;;11.93;9.83;;;9.70;99.90;;;;;;5064438;28;20181;-82
2022/01/29 02:38:38;;;;;;;16.90;10.17;;;9.70;99.90;;;;;;5061222;28;20633;-82
2022/01/29 02:41:06;;;;;;;11.60;9.03;;;9.70;99.90;;;;;;5072513;28;20738;-82
2022/01/29 02:43:42;;;;;;;15.23;11.07;;;9.70;99.90;;;;;;5056964;28;20276;-82
2022/01/29 02:48:42;;;;;;;17.15;11.30;;;9.70;99.90;;;;;;5048676;28;20661;-82
2022/01/29 02:51:09;;;;;;;14.95;10.98;;;9.70;99.90;;;;;;5069569;28;20192;-82
2022/01/29 02:53:35;;;;;;;14.10;10.00;;;9.70;99.90;;;;;;5063919;28;20180;-82
2022/01/29 02:56:00;;;;;;;14.70;10.17;;;9.70;99.90;;;;;;5072572;28;20531;-81
2022/01/29 02:58:26;;;;;;;11.50;9.13;;;9.70;99.90;;;;;;5074109;28;20573;-82
2022/01/29 03:00:52;;;;;;;14.15;9.35;;;9.70;99.90;;;;;;5074636;28;20268;-81
2022/01/29 03:03:18;;;;;;;15.17;10.00;;;9.70;99.90;;;;;;5075142;28;20215;-83
2022/01/29 03:05:45;;;;;;;13.70;10.70;;;9.70;99.90;;;;;;5062135;28;20624;-83
2022/01/29 03:08:11;;;;;;;14.90;10.30;;;9.70;99.90;;;;;;5064180;28;20237;-83
2022/01/29 03:10:37;;;;;;;13.52;9.57;;;9.80;99.90;;;;;;5057425;28;20224;-83
2022/01/29 03:13:03;;;;;;;17.03;10.60;;;9.80;99.90;;;;;;5056974;28;20687;-83
2022/01/29 03:15:29;;;;;;;15.77;10.68;;;9.80;99.90;;;;;;5060976;28;20587;-83
2022/01/29 03:17:54;;;;;;;15.67;11.20;;;9.80;99.90;;;;;;5063014;28;20183;-83
2022/01/29 03:20:20;;;;;;;14.93;10.77;;;9.80;99.90;;;;;;5060083;28;20627;-82
2022/01/29 03:22:46;;;;;;;16.47;11.10;;;9.80;99.90;;;;;;5064742;28;20184;-83
2022/01/29 03:25:12;;;;;;;15.27;10.20;;;9.80;99.90;;;;;;5064546;28;20176;-83
2022/01/29 03:27:37;;;;;;;14.70;10.23;;;9.70;99.90;;;;;;5064181;28;20191;-82
2022/01/29 03:30:05;;;;;;;16.80;11.67;;;9.80;99.90;;;;;;5060049;28;20249;-82
2022/01/29 03:32:31;;;;;;;18.15;11.43;;;9.70;99.90;;;;;;5060209;28;20176;-83
2022/01/29 03:34:56;;;;;;;13.50;9.87;;;9.70;99.90;;;;;;5059561;28;20564;-83
2022/01/29 03:37:22;;;;;;;16.23;11.20;;;9.70;99.90;;;;;;5064007;28;20180;-83
2022/01/29 03:39:48;;;;;;;14.30;9.43;;;9.70;99.90;;;;;;5059514;28;20197;-83
2022/01/29 03:42:14;;;;;;;14.63;10.70;;;9.70;99.90;;;;;;5061666;28;20184;-83
2022/01/29 03:44:44;;;;;;;15.48;10.65;;;9.70;99.90;;;;;;5058785;28;20188;-82
2022/01/29 03:47:09;;;;;;;13.77;9.15;;;9.70;99.90;;;;;;5063650;28;20200;-82
2022/01/29 03:49:35;;;;;;;13.87;9.50;;;9.70;99.90;;;;;;5062519;28;20782;-83
2022/01/29 03:52:01;;;;;;;14.73;10.73;;;9.80;99.90;;;;;;5060710;28;20165;-79
2022/01/29 03:54:27;;;;;;;13.30;9.87;;;9.80;99.90;;;;;;5061855;28;20581;-79
2022/01/29 03:56:52;;;;;;;14.47;10.80;;;9.80;99.90;;;;;;5062764;28;20567;-79
2022/01/29 03:59:18;;;;;;;16.70;11.53;;;9.80;99.90;;;;;;5060524;28;20688;-79
2022/01/29 04:01:44;;;;;;;16.27;10.23;;;9.70;99.90;;;;;;5054323;28;20185;-79
2022/01/29 04:04:09;;;;;;;11.03;9.07;;;9.70;99.90;;;;;;5060412;28;20609;-79
2022/01/29 04:06:35;;;;;;;9.77;7.63;;;9.70;99.90;;;;;;5061788;28;20250;-79
2022/01/29 04:09:05;;;;;;;12.13;8.70;;;9.70;99.90;;;;;;5061096;28;20632;-79
2022/01/29 04:11:33;;;;;;;10.38;8.25;;;9.70;99.90;;;;;;5059816;28;20173;-79
2022/01/29 04:14:00;;;;;;;10.48;7.82;;;9.60;99.90;;;;;;5061566;28;20595;-79
2022/01/29 04:16:26;;;;;;;10.55;7.43;;;9.60;99.90;;;;;;5061474;28;20298;-79
2022/01/29 04:18:52;;;;;;;10.03;8.10;;;9.60;99.90;;;;;;5060765;28;20191;-79
2022/01/29 04:21:18;;;;;;;12.23;8.10;;;9.60;99.90;;;;;;5062779;28;20180;-79
2022/01/29 04:23:43;;;;;;;10.03;7.20;;;9.60;99.90;;;;;;5060013;28;20180;-79
2022/01/29 04:26:09;;;;;;;12.00;7.60;;;9.60;99.90;;;;;;5044694;28;20191;-79
2022/01/29 04:28:41;;;;;;;11.77;6.90;;;9.60;99.90;;;;;;5059244;28;20231;-79
2022/01/29 04:31:18;;;;;;;11.13;7.18;;;9.60;99.90;;;;;;5061508;28;20216;-80
2022/01/29 04:33:45;;;;;;;10.48;6.63;;;9.60;99.90;;;;;;5041065;28;20733;-79
2022/01/29 04:36:11;;;;;;;8.00;6.75;;;9.60;99.90;;;;;;5060953;28;20169;-79
2022/01/29 04:38:37;;;;;;;12.30;7.03;;;9.70;99.90;;;;;;5061713;28;20608;-78
2022/01/29 04:41:04;;;;;;;9.65;6.63;;;9.70;99.90;;;;;;5062573;28;20603;-79
2022/01/29 04:43:36;;;;;;;8.50;5.88;;;9.70;99.90;;;;;;5060658;28;20181;-79
2022/01/29 04:46:03;;;;;;;7.63;5.55;;;9.70;99.90;;;;;;5059488;28;20176;-79
2022/01/29 04:48:28;;;;;;;7.05;5.78;;;9.70;99.90;;;;;;5063565;28;20204;-79
2022/01/29 04:50:54;;;;;;;8.90;5.90;;;9.60;99.90;;;;;;5059469;28;20569;-79
2022/01/29 04:53:21;;;;;;;10.13;5.87;;;9.60;99.90;;;;;;5062070;28;20570;-79
2022/01/29 04:55:47;;;;;;;7.00;4.78;;;9.60;99.90;;;;;;5060075;28;21193;-79
2022/01/29 04:58:12;;;;;;;7.70;5.67;;;9.60;99.90;;;;;;5059116;28;20173;-79
2022/01/29 05:00:38;;;;;;;7.70;6.50;;;9.60;99.90;;;;;;5062525;28;21029;-78
2022/01/29 05:03:12;;;;;;;7.13;5.50;;;9.60;99.90;;;;;;5038673;28;20181;-78
2022/01/29 05:05:39;;;;;;;9.57;6.60;;;9.50;99.90;;;;;;5061582;28;20184;-77
2022/01/29 05:08:05;;;;;;;7.22;5.60;;;9.50;99.90;;;;;;5042026;28;20664;-78
2022/01/29 05:10:33;;;;;;;8.38;5.65;;;9.50;99.90;;;;;;5061342;28;20223;-78
2022/01/29 05:13:05;;;;;;;6.70;5.00;;;9.50;99.90;;;;;;5060371;28;20176;-78
2022/01/29 05:15:40;;;;;;;6.28;4.03;;;9.50;99.90;;;;;;5065743;28;20187;-79
2022/01/29 05:29:05;;;;;;;5.47;4.63;;;9.50;99.90;;;;;;5063747;28;20177;-78
2022/01/29 05:31:31;;;;;;;4.13;3.70;;;9.50;99.90;;;;;;5063604;28;20177;-78
2022/01/29 05:33:57;;;;;;;4.97;4.00;;;9.50;99.90;;;;;;5067014;28;20616;-78
2022/01/29 05:36:23;;;;;;;5.60;4.07;;;9.50;99.90;;;;;;5063387;28;20671;-78
2022/01/29 05:38:49;;;;;;;4.88;3.80;;;9.50;99.90;;;;;;5065483;28;20207;-77
2022/01/29 05:41:15;;;;;;;2.93;2.40;;;9.50;99.90;;;;;;5064634;28;20962;-78
2022/01/29 05:43:43;;;;;;;4.65;2.80;;;9.50;99.90;;;;;;5065916;28;20169;-78
2022/01/29 05:46:13;;;;;;;3.85;3.03;;;9.60;99.90;;;;;;5063121;28;20225;-78
2022/01/29 05:48:39;;;;;;;3.42;2.42;;;9.50;99.90;;;;;;5064424;28;20751;-78
2022/01/29 05:51:06;;;;;;;3.88;3.00;;;9.60;99.90;;;;;;5063157;28;20299;-78
2022/01/29 05:53:31;;;;;;;3.35;2.42;;;9.60;99.90;;;;;;5064650;28;20176;-78
2022/01/29 05:55:57;;;;;;;3.90;3.40;;;9.60;99.90;;;;;;5058950;28;20226;-78
2022/01/29 05:58:23;;;;;;;3.10;2.20;;;9.60;99.90;;;;;;5064929;28;20578;-79
2022/01/29 06:00:49;;;;;;;4.00;2.20;;;9.70;99.90;;;;;;5062317;28;20626;-80
2022/01/29 06:03:15;;;;;;;3.03;2.10;;;9.70;99.90;;;;;;5063647;28;20180;-77
2022/01/29 06:05:40;;;;;;;2.90;1.97;;;9.70;99.90;;;;;;5064094;28;20594;-78
2022/01/29 06:08:06;;;;;;;2.47;2.20;;;9.70;99.90;;;;;;5061204;28;20201;-78
2022/01/29 06:10:33;;;;;;;2.70;2.03;;;9.70;99.90;;;;;;5064751;28;20608;-78
2022/01/29 06:13:13;;;;;;;3.22;2.03;;;9.70;99.90;;;;;;5063935;28;20571;-78
2022/01/29 06:15:42;;;;;;;2.92;1.60;;;9.70;99.90;;;;;;5058877;28;20173;-78
2022/01/29 06:18:15;;;;;;;3.20;2.22;;;9.70;99.90;;;;;;5064232;28;20195;-78
2022/01/29 06:20:42;;;;;;;3.58;1.70;;;9.70;99.90;;;;;;5064850;28;20245;-78
2022/01/29 06:23:09;;;;;;;2.40;1.67;;;9.70;99.90;;;;;;5053986;28;20644;-78
2022/01/29 06:25:35;;;;;;;2.85;2.10;;;9.70;99.90;;;;;;5063430;28;20585;-78
2022/01/29 06:28:01;;;;;;;1.85;1.30;;;9.70;99.90;;;;;;5063501;28;20196;-76
2022/01/29 06:30:27;;;;;;;3.07;1.70;;;9.70;99.90;;;;;;5063089;28;20192;-77
2022/01/29 06:32:52;;;;;;;2.87;2.20;;;9.70;99.90;;;;;;5065714;28;20168;-77
2022/01/29 06:35:18;;;;;;;2.87;1.73;;;9.70;99.90;;;;;;5060492;28;20173;-78
2022/01/29 06:37:44;;;;;;;3.13;1.80;;;9.70;99.90;;;;;;5062703;28;20212;-78
2022/01/29 06:40:10;;;;;;;1.80;1.53;;;9.70;99.90;;;;;;5062327;28;20208;-77
2022/01/29 06:42:36;;;;;;;2.03;1.50;;;9.70;99.90;;;;;;5065902;28;20620;-78
2022/01/29 06:45:03;;;;;;;2.15;1.50;;;9.70;99.90;;;;;;5061874;28;20245;-79
2022/01/29 06:47:29;;;;;;;3.00;2.65;;;9.70;99.90;;;;;;5063249;28;20290;-78
2022/01/29 06:49:54;;;;;;;1.70;1.57;;;9.70;99.90;;;;;;5061206;28;20284;-78
2022/01/29 06:52:20;;;;;;;2.43;2.13;;;9.80;99.90;;;;;;5061920;28;20179;-77
2022/01/29 06:54:46;;;;;;;2.53;1.67;;;9.80;99.90;;;;;;5064033;28;20267;-77
2022/01/29 06:57:12;;;;;;;1.87;1.67;;;9.80;99.90;;;;;;5065429;28;20191;-77
2022/01/29 06:59:37;;;;;;;2.60;2.40;;;9.80;99.90;;;;;;5057544;28;20274;-77
2022/01/29 07:02:03;;;;;;;3.00;2.23;;;9.80;99.90;;;;;;5062285;28;20234;-77
2022/01/29 07:04:29;;;;;;;2.22;1.67;;;9.80;99.90;;;;;;5061650;28;20181;-77
2022/01/29 07:06:58;;;;;;;1.80;1.60;;;9.90;99.90;;;;;;5061870;28;20201;-77
2022/01/29 07:09:23;;;;;;;2.43;1.70;;;9.90;99.90;;;;;;5063299;28;20743;-79
2022/01/29 07:11:55;;;;;;;3.03;2.27;;;9.90;99.90;;;;;;5055611;28;20173;-79
2022/01/29 07:14:21;;;;;;;3.03;2.05;;;9.90;99.90;;;;;;5050094;28;20180;-79
2022/01/29 07:16:47;;;;;;;2.43;1.97;;;9.90;99.90;;;;;;5061305;28;20255;-79
2022/01/29 07:19:12;;;;;;;3.77;2.43;;;10.00;99.90;;;;;;5053922;28;20173;-79
2022/01/29 07:21:38;;;;;;;2.30;2.10;;;10.00;99.90;;;;;;5051790;28;20675;-79
2022/01/29 07:24:05;;;;;;;2.90;2.17;;;10.00;99.90;;;;;;5050402;28;20176;-79
2022/01/29 07:26:30;;;;;;;2.58;2.00;;;10.00;99.90;;;;;;5049786;28;20177;-80
2022/01/29 07:28:56;;;;;;;2.60;2.23;;;10.00;99.90;;;;;;5049593;28;20165;-79
2022/01/29 07:31:22;;;;;;;2.90;2.60;;;10.10;99.90;;;;;;5023553;28;20683;-79
2022/01/29 07:33:48;;;;;;;2.90;2.60;;;10.10;99.90;;;;;;5059141;28;20201;-79
2022/01/29 07:36:14;;;;;;;2.10;1.88;;;10.10;99.90;;;;;;5060623;28;20179;-79
2022/01/29 07:38:39;;;;;;;3.03;2.27;;;10.20;99.90;;;;;;5061151;28;20184;-79
2022/01/29 07:41:05;;;;;;;2.10;1.70;;;10.20;99.90;;;;;;5062311;28;20261;-79
2022/01/29 07:43:30;;;;;;;2.20;2.00;;;10.20;99.90;;;;;;5059655;28;20176;-78
2022/01/29 07:45:56;;;;;;;2.30;1.77;;;10.20;99.90;;;;;;5064184;28;20541;-78
2022/01/29 07:48:23;;;;;;;2.93;2.40;;;10.20;99.90;;;;;;5052639;28;20200;-78
2022/01/29 07:50:50;;;;;;;2.58;2.13;;;10.20;99.90;;;;;;5059322;28;20195;-79
2022/01/29 07:53:15;;;;;;;2.50;2.20;;;10.30;99.90;;;;;;5061949;28;20514;-78
2022/01/29 07:55:41;;;;;;;4.87;1.63;;;10.30;99.90;;;;;;5055621;28;20187;-78
2022/01/29 07:58:07;;;;;;;2.00;1.53;;;10.30;99.90;;;;;;5027146;28;20185;-78
2022/01/29 08:00:34;;;;;;;3.50;2.45;;;10.30;99.90;;;;;;5062397;28;20626;-78
2022/01/29 08:03:00;;;;;;;2.35;1.90;;;10.40;99.90;;;;;;5061768;28;20188;-77
2022/01/29 08:05:26;;;;;;;4.05;2.58;;;10.40;99.90;;;;;;5058998;28;20543;-77
2022/01/29 08:07:52;;;;;;;2.25;2.05;;;10.50;99.90;;;;;;5052143;28;20218;-78
2022/01/29 08:10:18;;;;;;;2.37;2.10;;;10.50;99.90;;;;;;5056778;28;20189;-78
2022/01/29 08:12:44;;;;;;;3.15;2.03;;;10.50;99.90;;;;;;5058771;28;20192;-78
2022/01/29 08:15:10;;;;;;;3.70;2.60;;;10.50;99.90;;;;;;5061386;28;20201;-78
2022/01/29 08:17:36;;;;;;;2.63;1.93;;;10.50;99.90;;;;;;5059588;28;20184;-79
2022/01/29 08:20:02;;;;;;;2.20;2.00;;;10.60;99.90;;;;;;5059705;28;20603;-78
2022/01/29 08:22:28;;;;;;;2.72;2.17;;;10.60;99.90;;;;;;5044931;28;20207;-79
2022/01/29 08:24:54;;;;;;;3.10;2.43;;;10.70;99.90;;;;;;5061155;28;20537;-79
2022/01/29 08:27:20;;;;;;;2.70;2.50;;;10.70;99.90;;;;;;5061486;28;20609;-79
2022/01/29 08:29:46;;;;;;;2.80;2.47;;;10.70;99.90;;;;;;5060114;28;20647;-78
2022/01/29 08:32:12;;;;;;;2.50;2.30;;;10.70;99.90;;;;;;5059766;28;20172;-78
2022/01/29 08:34:39;;;;;;;1.93;1.73;;;10.70;99.90;;;;;;5058076;28;20571;-79
2022/01/29 08:37:06;;;;;;;2.90;2.30;;;10.70;99.90;;;;;;5060817;28;20184;-85
2022/01/29 08:39:36;;;;;;;2.90;2.70;;;10.80;99.90;;;;;;5058802;28;20240;-81
2022/01/29 08:42:02;;;;;;;2.42;2.15;;;10.80;99.90;;;;;;5061411;28;20189;-80
2022/01/29 08:44:28;;;;;;;2.10;1.90;;;10.80;99.90;;;;;;5062935;28;20180;-81
2022/01/29 08:46:53;;;;;;;2.70;2.50;;;10.90;99.90;;;;;;5060667;28;20547;-81
2022/01/29 08:49:20;;;;;;;2.33;2.13;;;10.90;99.90;;;;;;5065551;28;20606;-80
2022/01/29 08:51:49;;;;;;;2.70;2.50;;;10.90;99.90;;;;;;5060779;28;20176;-80
2022/01/29 08:54:14;;;;;;;3.00;2.70;;;11.00;99.90;;;;;;5059230;28;20195;-79
2022/01/29 08:56:41;;;;;;;3.13;2.90;;;11.00;99.90;;;;;;5060572;28;20248;-79
2022/01/29 08:59:07;;;;;;;2.47;2.17;;;11.00;99.90;;;;;;5066778;23;20239;-79
2022/01/29 09:01:32;;;;;;;2.90;2.70;;;11.00;99.90;;;;;;5022127;28;20681;-79
2022/01/29 09:03:59;;;;;;;3.67;2.03;;;11.10;99.90;;;;;;5024356;28;20170;-79
2022/01/29 09:06:25;;;;;;;3.05;2.75;;;11.10;99.90;;;;;;4997566;28;21057;-79
2022/01/29 09:08:51;;;;;;;2.53;2.33;;;11.20;99.90;;;;;;5026807;28;20272;-79
2022/01/29 09:11:19;;;;;;;3.67;2.90;;;11.20;99.90;;;;;;5022932;28;20842;-79
2022/01/29 09:13:45;;;;;;;2.50;2.30;;;11.10;99.90;;;;;;5024612;28;20178;-78
2022/01/29 09:16:10;;;;;;;2.63;2.40;;;11.20;99.90;;;;;;5026414;28;20189;-79
2022/01/29 09:18:36;;;;;;;2.87;2.10;;;11.20;99.90;;;;;;5005523;28;20185;-79
2022/01/29 09:21:03;;;;;;;2.63;2.10;;;11.30;99.90;;;;;;5013075;28;20241;-78
2022/01/29 09:23:28;;;;;;;2.40;2.20;;;11.40;99.90;;;;;;5016794;28;20539;-78
2022/01/29 09:25:55;;;;;;;2.90;2.10;;;11.40;99.90;;;;;;5024821;28;20174;-78
2022/01/29 09:28:22;;;;;;;4.15;1.63;;;11.50;99.90;;;;;;5022425;28;20293;-78
2022/01/29 09:30:49;;;;;;;3.88;2.00;;;11.50;99.90;;;;;;5008189;28;20225;-79
2022/01/29 09:33:17;;;;;;;2.30;1.50;;;11.50;99.90;;;;;;5014383;28;20194;-79
2022/01/29 09:35:43;;;;;;;2.13;1.63;;;11.60;99.90;;;;;;5004711;28;20181;-79
2022/01/29 09:38:11;;;;;;;1.90;1.30;;;11.60;99.90;;;;;;5020133;28;20176;-79
2022/01/29 09:40:37;;;;;;;2.13;1.38;;;11.70;99.90;;;;;;5030673;28;20194;-78
2022/01/29 09:43:06;;;;;;;1.73;1.50;;;11.70;99.90;;;;;;5011662;28;20585;-79
2022/01/29 09:45:32;;;;;;;2.38;1.83;;;11.70;99.90;;;;;;5018314;28;20173;-78
2022/01/29 09:48:02;;;;;;;2.00;1.60;;;11.80;99.90;;;;;;5026887;28;20288;-78
2022/01/29 09:50:36;;;;;;;2.20;1.40;;;11.90;99.90;;;;;;5025683;28;20189;-78
2022/01/29 09:53:03;;;;;;;1.70;1.40;;;12.00;99.90;;;;;;5007210;28;20507;-79
2022/01/29 09:55:29;;;;;;;2.35;2.15;;;12.10;99.90;;;;;;5025881;28;20166;-79
2022/01/29 09:57:56;;;;;;;2.10;1.60;;;12.20;99.90;;;;;;5029024;28;20569;-79
2022/01/29 10:00:22;;;;;;;1.95;1.55;;;12.20;99.90;;;;;;5017004;28;20214;-78
2022/01/29 10:03:11;;;;;;;2.45;1.55;;;12.30;99.90;;;;;;5014913;28;20171;-78
2022/01/29 10:05:41;;;;;;;1.95;1.08;;;12.40;99.90;;;;;;5009912;28;20309;-79
2022/01/29 10:08:08;;;;;;;1.40;1.20;;;12.50;99.90;;;;;;5014669;28;20201;-78
2022/01/29 10:10:44;;;;;;;2.10;1.70;;;12.50;99.90;;;;;;5022202;28;20277;-79
2022/01/29 10:13:30;;;;;;;1.63;1.40;;;12.50;99.90;;;;;;5025517;28;20544;-79
2022/01/29 10:16:19;;;;;;;2.57;1.23;;;12.60;99.90;;;;;;4995067;28;20545;-79
2022/01/29 10:19:06;;;;;;;1.90;1.63;;;12.60;99.90;;;;;;4992491;28;20584;-78
2022/01/29 10:21:36;;;;;;;1.80;1.30;;;12.70;99.90;;;;;;5022094;28;20608;-77
2022/01/29 10:24:14;;;;;;;2.30;1.48;;;12.70;99.90;;;;;;5022840;28;20717;-76
2022/01/29 10:26:42;;;;;;;1.73;1.30;;;12.70;99.90;;;;;;5021700;28;20208;-77
2022/01/29 10:29:22;;;;;;;1.80;1.42;;;12.70;99.90;;;;;;5024420;28;20727;-78
2022/01/29 10:31:53;;;;;;;2.33;1.63;;;12.80;99.90;;;;;;5014280;28;21058;-78
2022/01/29 10:34:24;;;;;;;1.80;1.17;;;12.70;99.90;;;;;;5020301;28;20562;-78
2022/01/29 10:37:21;;;;;;;1.70;1.10;;;12.80;99.90;;;;;;5004496;28;20672;-78
2022/01/29 10:39:54;;;;;;;1.70;0.90;;;12.90;99.90;;;;;;5026957;28;20615;-79
2022/01/29 10:42:29;;;;;;;1.50;0.93;;;13.10;99.90;;;;;;5006056;28;20628;-78
2022/01/29 10:45:02;;;;;;;1.70;1.20;;;13.10;99.90;;;;;;5013441;28;20706;-80
2022/01/29 10:47:30;;;;;;;1.40;1.00;;;13.10;99.90;;;;;;5026443;28;20628;-77
2022/01/29 10:50:05;;;;;;;1.30;0.80;;;13.10;99.90;;;;;;5027804;28;20609;-77
2022/01/29 10:52:34;;;;;;;1.52;1.00;;;13.20;99.90;;;;;;5024951;28;21170;-77
2022/01/29 10:55:03;;;;;;;1.47;0.80;;;13.20;99.90;;;;;;5012166;28;20189;-77
2022/01/29 10:57:42;;;;;;;1.37;0.80;;;13.30;99.90;;;;;;5021102;28;20573;-76
2022/01/29 11:00:30;;;;;;;1.30;0.80;;;13.30;99.90;;;;;;5006203;28;20625;-77
2022/01/29 11:02:58;;;;;;;1.40;0.80;;;13.40;99.90;;;;;;5021079;28;20573;-77
2022/01/29 11:05:27;;;;;;;2.30;0.80;;;13.40;99.90;;;;;;5008523;28;20580;-77
2022/01/29 11:07:55;;;;;;;1.43;0.97;;;13.50;99.90;;;;;;5027537;28;20628;-77
2022/01/29 11:10:21;;;;;;;1.30;0.60;;;13.60;99.90;;;;;;5008812;28;20608;-77
2022/01/29 11:12:48;;;;;;;1.13;0.67;;;13.70;99.90;;;;;;5025154;28;20592;-78
2022/01/29 11:15:17;;;;;;;1.60;0.80;;;13.80;99.90;;;;;;5009111;28;20604;-77
2022/01/29 11:17:43;;;;;;;1.30;0.70;;;13.80;99.90;;;;;;5008215;28;20595;-77
2022/01/29 11:20:10;;;;;;;1.30;0.90;;;13.90;99.90;;;;;;5027099;28;20664;-77
2022/01/29 11:22:40;;;;;;;5.17;1.20;;;13.90;99.90;;;;;;5035309;28;20623;-77
2022/01/29 11:25:17;;;;;;;2.47;0.90;;;13.90;99.90;;;;;;5022534;28;20585;-78
2022/01/29 11:27:43;;;;;;;2.40;0.80;;;13.90;99.90;;;;;;5002553;28;20617;-77
2022/01/29 11:30:09;;;;;;;1.40;0.70;;;13.80;99.90;;;;;;5023588;28;21185;-78
2022/01/29 11:32:42;;;;;;;1.20;0.60;;;13.70;99.90;;;;;;5012170;28;21028;-78
2022/01/29 11:35:14;;;;;;;2.50;0.70;;;13.70;99.90;;;;;;5012163;28;20178;-79
2022/01/29 11:37:57;;;;;;;1.20;0.63;;;13.70;99.90;;;;;;4997945;28;20236;-78
2022/01/29 11:40:36;;;;;;;1.20;0.60;;;13.70;99.90;;;;;;5023464;28;20611;-80
2022/01/29 11:43:09;;;;;;;1.70;0.60;;;13.60;99.90;;;;;;5005170;28;20589;-81
2022/01/29 11:45:48;;;;;;;2.87;0.90;;;13.60;99.90;;;;;;5021395;28;20570;-81
2022/01/29 11:48:22;;;;;;;1.53;0.70;;;13.60;99.90;;;;;;5022022;28;20670;-81
2022/01/29 11:50:49;;;;;;;1.40;0.70;;;13.50;99.90;;;;;;5023197;28;20596;-81
2022/01/29 11:53:19;;;;;;;1.30;0.80;;;13.50;99.90;;;;;;4988159;28;20581;-81
2022/01/29 11:55:48;;;;;;;2.10;1.30;;;13.50;99.90;;;;;;5014592;28;20941;-81
2022/01/29 11:58:15;;;;;;;3.77;2.00;;;13.50;99.90;;;;;;5011048;28;20574;-81
2022/01/29 12:00:42;;;;;;;1.90;1.20;;;13.50;99.90;;;;;;5022555;28;20638;-81
2022/01/29 12:09:02;;;;;;;2.27;1.00;;;13.40;99.90;;;;;;5023198;28;20632;-78
2022/01/29 12:11:28;;;;;;;2.10;1.20;;;13.40;99.90;;;;;;5010603;28;21262;-79
2022/01/29 12:14:16;;;;;;;1.80;1.00;;;13.40;99.90;;;;;;5022221;28;20711;-82
2022/01/29 12:16:54;;;;;;;1.30;1.03;;;13.30;99.90;;;;;;5021840;28;20185;-79
2022/01/29 12:19:38;;;;;;;2.40;1.70;;;13.30;99.90;;;;;;5024577;28;20700;-80
2022/01/29 12:22:09;;;;;;;2.50;1.47;;;13.30;99.90;;;;;;5002770;28;20182;-80
2022/01/29 12:24:35;;;;;;;2.67;1.30;;;13.40;99.90;;;;;;5010204;28;20587;-80
2022/01/29 12:27:00;;;;;;;2.90;1.10;;;13.50;99.90;;;;;;5030043;28;20633;-81
2022/01/29 12:29:27;;;;;;;1.50;0.80;;;13.60;99.90;;;;;;4996500;28;20613;-80
2022/01/29 12:31:53;;;;;;;1.70;1.00;;;13.70;99.90;;;;;;5019658;28;20576;-79
2022/01/29 12:34:21;;;;;;;1.73;0.90;;;13.80;99.90;;;;;;5022909;28;20580;-79
2022/01/29 12:36:49;;;;;;;1.30;0.70;;;13.80;99.90;;;;;;5019158;28;20588;-79
2022/01/29 12:39:21;;;;;;;2.43;0.90;;;13.80;99.90;;;;;;5012307;28;20581;-79
2022/01/29 12:44:43;;;;;;;1.57;0.80;;;13.80;99.90;;;;;;5019470;28;20601;-80
2022/01/29 12:47:29;;;;;;;1.57;0.83;;;13.90;99.90;;;;;;5020385;28;20644;-86
2022/01/29 12:49:56;;;;;;;1.60;1.00;;;13.80;99.90;;;;;;5034022;28;21248;-82
2022/01/29 12:52:23;;;;;;;2.07;1.20;;;13.80;99.90;;;;;;5019750;28;20657;-82
2022/01/29 12:54:58;;;;;;;4.67;1.63;;;13.80;99.90;;;;;;5023815;28;21143;-81
2022/01/29 12:57:25;;;;;;;1.80;0.97;;;13.80;99.90;;;;;;5018761;28;20604;-79
2022/01/29 12:59:51;;;;;;;3.60;2.23;;;13.80;99.90;;;;;;4988301;28;20721;-81
2022/01/29 13:02:20;;;;;;;2.90;1.70;;;13.70;99.90;;;;;;5007446;28;20634;-80
2022/01/29 13:04:47;;;;;;;2.45;1.40;;;13.80;99.90;;;;;;5004860;28;20728;-82
2022/01/29 13:07:20;;;;;;;3.03;1.33;;;13.70;99.90;;;;;;5026178;28;20538;-80
2022/01/29 13:09:55;;;;;;;1.77;1.13;;;13.60;99.90;;;;;;5021057;28;20683;-80
2022/01/29 13:12:21;;;;;;;1.60;1.10;;;13.60;99.90;;;;;;5002219;28;20711;-81
2022/01/29 13:14:51;;;;;;;1.37;0.83;;;13.40;99.90;;;;;;5019941;28;20651;-81